Terminal Aerodrome Forecast
Issued by NWS

Home | Current Version | Previous Version | Text Only | Print | Product List | Glossary On
Versions: 1 2 3 4 5 6 7 8 9 10 11 12 13 14 15 16 17 18 19 20 21 22 23 24 25 26 27 28
000
FTUS46 KLOX 261700
TAFLAX
TAF
KLAX 261726Z 2618/2724 27007KT 5SM HZ SCT005 BKN200
      TEMPO 2618/2620 3SM BR BKN005
     FM262000 26011KT P6SM SCT005 BKN200
     FM270300 25008KT 5SM BR OVC004
     FM270700 VRB03KT 5SM BR OVC004
     FM271400 VRB03KT 6SM BR OVC007
     FM271700 23005KT P6SM SCT007 BKN150
     FM272100 26012KT P6SM SCT150 BKN200=

USA.gov is the U.S. government's official web portal to all federal, state and local government web resources and services.